Time;durP1;ratioP1;P1;durP2;ratioP2;P2;SDS_P1;SDS_P2;PMS_P1;PMS_P2;Temp;Humidity;BMP_temperature;BMP_pressure;BME280_temperature;BME280_humidity;BME280_pressure;Samples;Min_cycle;Max_cycle;Signal;HPM_P1;HPM_P2
2023/12/25 00:02:24;;;;;;;;;;;12.60;99.90;;;;;;5074804;28;19923;-74
2023/12/25 00:04:50;;;;;;;;;;;12.60;99.90;;;;;;5091029;28;19995;-73
2023/12/25 00:07:16;;;;;;;;;;;12.50;99.90;;;;;;5090705;28;20342;-74
2023/12/25 00:09:41;;;;;;;;;;;12.50;99.90;;;;;;5091852;28;19924;-74
2023/12/25 00:12:07;;;;;;;;;;;12.60;99.90;;;;;;5091743;28;20372;-73
2023/12/25 00:14:33;;;;;;;;;;;12.60;99.90;;;;;;5094919;28;19912;-75
2023/12/25 00:16:59;;;;;;;;;;;12.60;99.90;;;;;;5094952;28;20315;-73
2023/12/25 00:19:26;;;;;;;;;;;12.60;99.90;;;;;;5094268;28;19912;-72
2023/12/25 00:21:52;;;;;;;;;;;12.60;99.90;;;;;;5093746;28;19928;-74
2023/12/25 00:24:18;;;;;;;;;;;12.60;99.90;;;;;;5095728;28;19908;-73
2023/12/25 00:26:43;;;;;;;;;;;12.60;99.90;;;;;;5095024;28;19908;-74
2023/12/25 00:29:09;;;;;;;;;;;12.50;99.90;;;;;;5094815;28;19927;-72
2023/12/25 00:31:35;;;;;;;;;;;12.60;99.90;;;;;;5092373;28;19995;-73
2023/12/25 00:34:01;;;;;;;;;;;12.60;99.90;;;;;;5094995;28;19912;-74
2023/12/25 00:36:26;;;;;;;;;;;12.50;99.90;;;;;;5095079;28;19908;-74
2023/12/25 00:38:52;;;;;;;;;;;12.50;99.90;;;;;;5095092;28;20049;-74
2023/12/25 00:41:18;;;;;;;;;;;12.50;99.90;;;;;;5089647;28;20011;-72
2023/12/25 00:43:44;;;;;;;;;;;12.50;99.90;;;;;;5086349;28;19923;-75
2023/12/25 00:46:10;;;;;;;;;;;12.40;99.90;;;;;;5094234;28;19919;-73
2023/12/25 00:48:36;;;;;;;;;;;12.40;99.90;;;;;;5094712;28;19958;-73
2023/12/25 00:51:05;;;;;;;;;;;12.40;99.90;;;;;;5093110;28;19992;-73
2023/12/25 00:53:30;;;;;;;;;;;12.30;99.90;;;;;;5081790;28;19912;-74
2023/12/25 00:55:56;;;;;;;;;;;12.30;99.90;;;;;;5094670;28;19909;-73
2023/12/25 00:58:22;;;;;;;;;;;12.20;99.90;;;;;;5094473;28;20336;-73
2023/12/25 01:00:48;;;;;;;;;;;12.10;99.90;;;;;;5094590;28;19912;-73
2023/12/25 01:03:13;;;;;;;;;;;12.00;99.90;;;;;;5077489;28;19920;-73
2023/12/25 01:05:39;;;;;;;;;;;12.10;99.90;;;;;;5093229;28;20326;-75
2023/12/25 01:08:05;;;;;;;;;;;12.00;99.90;;;;;;5094105;28;20023;-76
2023/12/25 01:10:31;;;;;;;;;;;12.00;99.90;;;;;;5075674;28;19920;-74
2023/12/25 01:12:57;;;;;;;;;;;12.00;99.90;;;;;;5088900;28;19912;-76
2023/12/25 01:15:23;;;;;;;;;;;12.00;99.90;;;;;;5093004;28;19923;-76
2023/12/25 01:17:49;;;;;;;;;;;12.10;99.90;;;;;;5094052;28;20008;-75
2023/12/25 01:20:15;;;;;;;;;;;12.10;99.90;;;;;;5092916;28;19915;-76
2023/12/25 01:22:41;;;;;;;;;;;12.10;99.90;;;;;;5091092;28;19928;-73
2023/12/25 01:25:07;;;;;;;;;;;12.20;99.90;;;;;;5092982;28;20099;-73
2023/12/25 01:27:33;;;;;;;;;;;12.20;99.90;;;;;;5093824;28;19915;-72
2023/12/25 01:29:59;;;;;;;;;;;12.20;99.90;;;;;;5093532;28;19924;-72
2023/12/25 01:32:24;;;;;;;;;;;12.20;99.90;;;;;;5074000;28;20005;-72
2023/12/25 01:34:50;;;;;;;;;;;12.10;99.90;;;;;;5093209;28;20370;-73
2023/12/25 01:37:16;;;;;;;;;;;12.10;99.90;;;;;;5093375;28;20005;-73
2023/12/25 01:39:42;;;;;;;;;;;12.10;99.90;;;;;;5093296;28;20102;-74
2023/12/25 01:42:08;;;;;;;;;;;12.00;99.90;;;;;;5089163;28;20256;-74
2023/12/25 01:44:34;;;;;;;;;;;12.00;99.90;;;;;;5092699;28;19912;-73
2023/12/25 01:46:59;;;;;;;;;;;11.90;99.90;;;;;;5093153;28;19908;-72
2023/12/25 01:49:25;;;;;;;;;;;11.90;99.90;;;;;;5092720;28;20089;-73
2023/12/25 01:51:51;;;;;;;;;;;11.90;99.90;;;;;;5073083;28;19941;-74
2023/12/25 01:54:17;;;;;;;;;;;11.80;99.90;;;;;;5092738;28;20302;-74
2023/12/25 01:56:43;;;;;;;;;;;11.80;99.90;;;;;;5092570;28;20332;-73
2023/12/25 01:59:09;;;;;;;;;;;11.70;99.90;;;;;;5092585;28;19916;-72
2023/12/25 02:01:35;;;;;;;;;;;11.70;99.90;;;;;;5091670;28;19982;-73
2023/12/25 02:04:01;;;;;;;;;;;11.70;99.90;;;;;;5069211;28;19966;-74
2023/12/25 02:06:28;;;;;;;;;;;11.70;99.90;;;;;;5092270;28;19948;-73
2023/12/25 02:08:54;;;;;;;;;;;11.60;99.90;;;;;;5091953;28;19924;-72
2023/12/25 02:11:23;;;;;;;;;;;11.50;99.90;;;;;;5092020;28;19918;-70
2023/12/25 02:13:48;;;;;;;;;;;11.40;99.90;;;;;;5084534;28;19919;-72
2023/12/25 02:16:15;;;;;;;;;;;11.30;99.90;;;;;;5092080;28;19923;-71
2023/12/25 02:18:41;;;;;;;;;;;11.30;99.90;;;;;;5092200;28;19919;-71
2023/12/25 02:21:06;;;;;;;;;;;11.20;99.90;;;;;;5090907;28;19920;-72
2023/12/25 02:23:34;;;;;;;;;;;11.20;99.90;;;;;;5084473;28;19912;-74
2023/12/25 02:26:09;;;;;;;;;;;11.20;99.90;;;;;;5091803;28;19912;-74
2023/12/25 02:28:35;;;;;;;;;;;11.30;99.90;;;;;;5073346;28;19920;-74
2023/12/25 02:31:01;;;;;;;;;;;11.30;99.90;;;;;;5091942;28;19919;-75
2023/12/25 02:33:33;;;;;;;;;;;11.30;99.90;;;;;;5080560;28;19920;-74
2023/12/25 02:35:59;;;;;;;;;;;11.30;99.90;;;;;;5091635;28;19991;-74
2023/12/25 02:38:25;;;;;;;;;;;11.30;99.90;;;;;;5074590;28;20017;-75
2023/12/25 02:40:50;;;;;;;;;;;11.40;99.90;;;;;;5091659;28;19908;-74
2023/12/25 02:43:16;;;;;;;;;;;11.50;99.90;;;;;;5085283;28;19912;-74
2023/12/25 02:45:42;;;;;;;;;;;11.40;99.90;;;;;;5086181;28;20384;-75
2023/12/25 02:48:09;;;;;;;;;;;11.30;99.90;;;;;;5072957;28;19959;-75
2023/12/25 02:50:35;;;;;;;;;;;11.30;99.90;;;;;;5073464;28;20384;-76
2023/12/25 02:53:03;;;;;;;;;;;11.20;99.90;;;;;;5072751;28;19912;-72
2023/12/25 02:55:29;;;;;;;;;;;11.20;99.90;;;;;;5091810;28;20272;-73
2023/12/25 02:57:56;;;;;;;;;;;11.20;99.90;;;;;;5091851;28;19912;-74
2023/12/25 03:00:22;;;;;;;;;;;11.20;99.90;;;;;;5091461;28;19985;-75
2023/12/25 03:02:47;;;;;;;;;;;11.30;99.90;;;;;;5073151;28;19919;-75
2023/12/25 03:05:13;;;;;;;;;;;11.30;99.90;;;;;;5072905;28;19966;-73
2023/12/25 03:07:39;;;;;;;;;;;11.30;99.90;;;;;;5091519;28;19953;-74
2023/12/25 03:10:11;;;;;;;;;;;11.40;99.90;;;;;;5091304;28;20353;-74
2023/12/25 03:12:37;;;;;;;;;;;11.40;99.90;;;;;;5091170;28;19920;-69
2023/12/25 03:15:03;;;;;;;;;;;11.40;99.90;;;;;;5090041;28;19912;-73
2023/12/25 03:17:29;;;;;;;;;;;11.40;99.90;;;;;;5090978;28;19935;-71
2023/12/25 03:19:55;;;;;;;;;;;11.50;99.90;;;;;;5090906;28;19993;-73
2023/12/25 03:22:20;;;;;;;;;;;11.50;99.90;;;;;;5072552;28;19916;-73
2023/12/25 03:24:46;;;;;;;;;;;11.50;99.90;;;;;;5090871;28;20004;-71
2023/12/25 03:27:12;;;;;;;;;;;11.60;99.90;;;;;;5091640;28;19908;-74
2023/12/25 03:29:39;;;;;;;;;;;11.50;99.90;;;;;;5091285;28;19977;-75
2023/12/25 03:32:04;;;;;;;;;;;11.50;99.90;;;;;;5090779;28;19913;-74
2023/12/25 03:34:30;;;;;;;;;;;11.50;99.90;;;;;;5091200;28;19981;-75
2023/12/25 03:36:56;;;;;;;;;;;11.50;99.90;;;;;;5072821;28;19943;-75
2023/12/25 03:39:22;;;;;;;;;;;11.50;99.90;;;;;;5091191;28;20372;-75
2023/12/25 03:41:48;;;;;;;;;;;11.50;99.90;;;;;;5091395;28;19908;-74
2023/12/25 03:44:14;;;;;;;;;;;11.60;99.90;;;;;;5078745;28;19939;-75
2023/12/25 03:46:39;;;;;;;;;;;11.50;99.90;;;;;;5090736;28;19916;-74
2023/12/25 03:49:05;;;;;;;;;;;11.60;99.90;;;;;;5091551;28;19968;-74
2023/12/25 03:51:34;;;;;;;;;;;11.60;99.90;;;;;;5091020;28;19908;-75
2023/12/25 03:53:59;;;;;;;;;;;11.70;99.90;;;;;;5090695;28;19916;-75
2023/12/25 03:56:25;;;;;;;;;;;11.70;99.90;;;;;;5091397;28;19969;-75
2023/12/25 03:58:51;;;;;;;;;;;11.70;99.90;;;;;;5091043;28;20228;-75
2023/12/25 04:01:17;;;;;;;;;;;11.70;99.90;;;;;;5091120;28;19912;-75
2023/12/25 04:03:43;;;;;;;;;;;11.80;99.90;;;;;;5090530;28;19920;-75
2023/12/25 04:06:08;;;;;;;;;;;11.80;99.90;;;;;;5072624;28;20128;-74
2023/12/25 04:08:34;;;;;;;;;;;11.80;99.90;;;;;;5090894;28;19915;-75
2023/12/25 04:11:00;;;;;;;;;;;11.80;99.90;;;;;;5090816;28;19915;-74
2023/12/25 04:13:26;;;;;;;;;;;11.80;99.90;;;;;;5083261;28;19923;-74
2023/12/25 04:15:53;;;;;;;;;;;11.80;99.90;;;;;;5087322;28;19916;-74
2023/12/25 04:18:18;;;;;;;;;;;11.80;99.90;;;;;;5072123;28;20002;-74
2023/12/25 04:20:44;;;;;;;;;;;11.80;99.90;;;;;;5090728;28;20257;-74
2023/12/25 04:23:10;;;;;;;;;;;11.80;99.90;;;;;;5090629;28;20049;-69
2023/12/25 04:25:36;;;;;;;;;;;11.80;99.90;;;;;;5089938;28;19920;-73
2023/12/25 04:28:01;;;;;;;;;;;11.80;99.90;;;;;;5090748;28;19975;-72
2023/12/25 04:30:27;;;;;;;;;;;11.80;99.90;;;;;;5090361;28;19932;-73
2023/12/25 04:32:53;;;;;;;;;;;11.80;99.90;;;;;;5090820;28;19908;-73
2023/12/25 04:35:19;;;;;;;;;;;11.80;99.90;;;;;;5090198;28;19935;-72
2023/12/25 04:37:46;;;;;;;;;;;11.80;99.90;;;;;;5090057;28;20264;-74
2023/12/25 04:40:11;;;;;;;;;;;11.70;99.90;;;;;;5072173;28;19908;-74
2023/12/25 04:42:37;;;;;;;;;;;11.70;99.90;;;;;;5090839;28;20349;-73
2023/12/25 04:45:05;;;;;;;;;;;11.70;99.90;;;;;;5089925;28;19912;-68
2023/12/25 04:47:30;;;;;;;;;;;11.70;99.90;;;;;;5067332;28;19919;-73
2023/12/25 04:49:56;;;;;;;;;;;11.70;99.90;;;;;;5090130;28;19916;-72
2023/12/25 04:52:22;;;;;;;;;;;11.70;99.90;;;;;;5071647;28;19923;-69
2023/12/25 04:54:48;;;;;;;;;;;11.70;99.90;;;;;;5089810;28;19908;-73
2023/12/25 04:57:14;;;;;;;;;;;11.70;99.90;;;;;;5093578;28;20036;-72
2023/12/25 04:59:39;;;;;;;;;;;11.80;99.90;;;;;;5094115;28;19922;-73
2023/12/25 05:02:05;;;;;;;;;;;11.80;99.90;;;;;;5093891;28;19912;-74
2023/12/25 05:04:32;;;;;;;;;;;11.80;99.90;;;;;;5075245;28;19952;-73
2023/12/25 05:06:57;;;;;;;;;;;11.80;99.90;;;;;;5094133;28;19930;-73
2023/12/25 05:09:23;;;;;;;;;;;11.80;99.90;;;;;;5093418;28;20422;-74
2023/12/25 05:11:49;;;;;;;;;;;11.80;99.90;;;;;;5094344;28;19984;-75
2023/12/25 05:14:15;;;;;;;;;;;11.80;99.90;;;;;;5092225;28;20233;-74
2023/12/25 05:16:41;;;;;;;;;;;11.80;99.90;;;;;;5086912;28;19928;-74
2023/12/25 05:19:06;;;;;;;;;;;11.70;99.90;;;;;;5074576;28;19919;-73
2023/12/25 05:21:32;;;;;;;;;;;11.70;99.90;;;;;;5093608;28;20390;-74
2023/12/25 05:23:58;;;;;;;;;;;11.70;99.90;;;;;;5093374;28;19912;-75
2023/12/25 05:26:26;;;;;;;;;;;11.70;99.90;;;;;;5093096;28;20260;-75
2023/12/25 05:28:52;;;;;;;;;;;11.80;99.90;;;;;;5074247;28;20362;-75
2023/12/25 05:31:18;;;;;;;;;;;11.80;99.90;;;;;;5093087;28;19981;-75
2023/12/25 05:33:44;;;;;;;;;;;11.90;99.90;;;;;;5093227;28;19912;-73
2023/12/25 05:36:10;;;;;;;;;;;11.90;99.90;;;;;;5093102;28;19994;-73
2023/12/25 05:38:36;;;;;;;;;;;11.90;99.90;;;;;;5093498;28;19989;-74
2023/12/25 05:41:02;;;;;;;;;;;11.90;99.90;;;;;;5093098;28;19912;-74
2023/12/25 05:43:29;;;;;;;;;;;11.90;99.90;;;;;;5093125;28;19914;-69
2023/12/25 05:45:55;;;;;;;;;;;11.90;99.90;;;;;;5092818;28;20088;-73
2023/12/25 05:48:21;;;;;;;;;;;11.90;99.90;;;;;;5093521;28;19945;-74
2023/12/25 05:50:47;;;;;;;;;;;12.00;99.90;;;;;;5093013;28;19920;-73
2023/12/25 05:53:13;;;;;;;;;;;12.00;99.90;;;;;;5093438;28;20017;-74
2023/12/25 05:55:38;;;;;;;;;;;12.00;99.90;;;;;;5092754;28;19912;-72
2023/12/25 05:58:04;;;;;;;;;;;12.00;99.90;;;;;;5075071;28;20358;-72
2023/12/25 06:00:30;;;;;;;;;;;12.10;99.90;;;;;;5091953;28;19912;-68
2023/12/25 06:02:56;;;;;;;;;;;12.20;99.90;;;;;;5092525;28;19916;-72
2023/12/25 06:05:22;;;;;;;;;;;12.20;99.90;;;;;;5092967;28;20272;-70
2023/12/25 06:07:49;;;;;;;;;;;12.20;99.90;;;;;;5087102;28;19919;-73
2023/12/25 06:10:14;;;;;;;;;;;12.30;99.90;;;;;;5091568;28;19917;-71
2023/12/25 06:12:40;;;;;;;;;;;12.30;99.90;;;;;;5092360;28;19919;-72
2023/12/25 06:15:08;;;;;;;;;;;12.30;99.90;;;;;;5092110;28;20292;-73
2023/12/25 06:17:34;;;;;;;;;;;12.20;99.90;;;;;;5072517;28;19908;-73
2023/12/25 06:20:04;;;;;;;;;;;12.20;99.90;;;;;;5079698;28;19943;-75
2023/12/25 06:22:30;;;;;;;;;;;12.20;99.90;;;;;;5092468;28;19920;-76
2023/12/25 06:24:56;;;;;;;;;;;12.30;99.90;;;;;;5092451;28;19916;-78
2023/12/25 06:27:21;;;;;;;;;;;12.20;99.90;;;;;;5092705;28;20312;-73
2023/12/25 06:29:47;;;;;;;;;;;12.30;99.90;;;;;;5074049;28;19916;-72
2023/12/25 06:32:14;;;;;;;;;;;12.30;99.90;;;;;;5091947;28;19914;-71
2023/12/25 06:34:40;;;;;;;;;;;12.30;99.90;;;;;;5089286;28;19916;-65
2023/12/25 06:37:06;;;;;;;;;;;12.30;99.90;;;;;;5092361;28;19927;-65
2023/12/25 06:39:31;;;;;;;;;;;12.30;99.90;;;;;;5092648;28;19919;-65
2023/12/25 06:41:57;;;;;;;;;;;12.40;99.90;;;;;;5092274;28;20017;-64
2023/12/25 06:44:23;;;;;;;;;;;12.70;99.90;;;;;;5073392;28;19915;-68
2023/12/25 06:46:49;;;;;;;;;;;13.00;99.90;;;;;;5091641;28;20012;-67
2023/12/25 06:49:15;;;;;;;;;;;13.50;99.90;;;;;;5092007;28;19916;-66
2023/12/25 06:51:40;;;;;;;;;;;14.00;99.90;;;;;;5090558;28;19908;-63
2023/12/25 06:54:07;;;;;;;;;;;14.60;99.90;;;;;;5092382;28;20364;-63
2023/12/25 06:56:33;;;;;;;;;;;15.10;99.90;;;;;;5092408;28;19908;-63
2023/12/25 06:58:59;;;;;;;;;;;15.50;99.90;;;;;;5092643;28;19916;-62
2023/12/25 07:01:25;;;;;;;;;;;16.10;99.90;;;;;;5091645;28;20268;-65
2023/12/25 07:03:52;;;;;;;;;;;16.60;99.90;;;;;;5081285;28;20011;-71
2023/12/25 07:06:18;;;;;;;;;;;17.10;99.90;;;;;;5091244;28;19908;-71
2023/12/25 07:08:45;;;;;;;;;;;17.50;99.90;;;;;;5091225;28;19924;-71
2023/12/25 07:11:11;;;;;;;;;;;17.60;99.90;;;;;;5091668;28;19912;-70
2023/12/25 07:13:37;;;;;;;;;;;17.70;99.90;;;;;;5080710;28;19966;-67
2023/12/25 07:16:04;;;;;;;;;;;17.90;99.90;;;;;;5088427;28;19908;-70
2023/12/25 07:18:30;;;;;;;;;;;18.10;99.90;;;;;;5092513;28;19912;-67
2023/12/25 07:20:56;;;;;;;;;;;18.40;99.90;;;;;;5073646;28;19920;-68
2023/12/25 07:23:22;;;;;;;;;;;18.60;99.90;;;;;;5078167;28;20392;-70
2023/12/25 07:25:48;;;;;;;;;;;18.80;99.90;;;;;;5072280;28;19995;-66
2023/12/25 07:28:14;;;;;;;;;;;19.10;99.90;;;;;;5072934;28;19956;-67
2023/12/25 07:30:40;;;;;;;;;;;19.40;99.90;;;;;;5075517;28;19959;-65
2023/12/25 07:33:06;;;;;;;;;;;19.80;99.90;;;;;;5081342;28;19999;-68
2023/12/25 07:35:32;;;;;;;;;;;20.10;99.90;;;;;;5072831;28;19976;-70
2023/12/25 07:37:59;;;;;;;;;;;19.40;99.90;;;;;;5072749;28;20284;-71
2023/12/25 07:40:25;;;;;;;;;;;18.90;99.90;;;;;;5054658;28;19912;-70
2023/12/25 07:42:51;;;;;;;;;;;18.90;99.90;;;;;;5077671;28;19908;-70
2023/12/25 07:45:17;;;;;;;;;;;18.60;99.90;;;;;;5092975;28;20303;-70
2023/12/25 07:47:42;;;;;;;;;;;18.40;99.90;;;;;;5093364;28;19946;-70
2023/12/25 07:50:09;;;;;;;;;;;18.30;99.90;;;;;;5073993;28;20368;-68
2023/12/25 07:52:35;;;;;;;;;;;18.10;99.90;;;;;;5085333;28;19983;-70
2023/12/25 07:55:01;;;;;;;;;;;17.50;99.90;;;;;;5053241;28;20249;-68
2023/12/25 07:57:26;;;;;;;;;;;17.00;99.90;;;;;;5073244;28;19931;-67
2023/12/25 07:59:52;;;;;;;;;;;16.90;99.90;;;;;;5091715;28;19930;-71
2023/12/25 08:02:18;;;;;;;;;;;16.90;99.90;;;;;;5087748;28;20411;-69
2023/12/25 08:04:45;;;;;;;;;;;16.80;99.90;;;;;;5089598;28;19912;-68
2023/12/25 08:07:11;;;;;;;;;;;16.60;99.90;;;;;;5082194;28;19927;-71
2023/12/25 08:09:36;;;;;;;;;;;16.30;99.90;;;;;;5090303;28;20324;-71
2023/12/25 08:12:02;;;;;;;;;;;16.20;99.90;;;;;;5088362;28;19912;-71
2023/12/25 08:14:28;;;;;;;;;;;16.00;99.90;;;;;;5088135;28;20019;-72
2023/12/25 08:16:54;;;;;;;;;;;15.80;99.90;;;;;;5072696;28;20346;-69
2023/12/25 08:19:20;;;;;;;;;;;15.80;99.90;;;;;;5090649;28;19970;-72
2023/12/25 08:21:46;;;;;;;;;;;15.90;99.90;;;;;;5052661;28;20284;-69
2023/12/25 08:24:12;;;;;;;;;;;16.00;99.90;;;;;;5053238;28;19913;-71
2023/12/25 08:26:38;;;;;;;;;;;15.90;99.90;;;;;;5064984;28;19913;-74
2023/12/25 08:29:03;;;;;;;;;;;16.00;99.90;;;;;;5051624;28;19932;-79
2023/12/25 08:31:29;;;;;;;;;;;16.00;99.90;;;;;;5072491;28;20300;-67
2023/12/25 08:33:55;;;;;;;;;;;16.10;99.90;;;;;;5074972;28;19913;-71
2023/12/25 08:36:21;;;;;;;;;;;16.30;99.90;;;;;;5073312;28;19999;-70
2023/12/25 08:38:49;;;;;;;;;;;16.60;99.90;;;;;;5073732;28;20025;-70
2023/12/25 08:41:15;;;;;;;;;;;16.90;99.90;;;;;;5071423;28;19908;-71
2023/12/25 08:43:42;;;;;;;;;;;17.20;99.90;;;;;;5073754;28;20237;-70
2023/12/25 08:46:08;;;;;;;;;;;17.30;99.90;;;;;;5073383;28;19913;-72
2023/12/25 08:48:33;;;;;;;;;;;17.40;99.90;;;;;;5073737;28;19927;-72
2023/12/25 08:50:59;;;;;;;;;;;17.50;99.90;;;;;;5071149;28;20034;-74
2023/12/25 08:53:25;;;;;;;;;;;17.50;99.90;;;;;;5073103;28;19921;-70
2023/12/25 08:55:55;;;;;;;;;;;17.50;99.90;;;;;;5074176;28;19913;-72
2023/12/25 08:58:22;;;;;;;;;;;17.70;99.90;;;;;;5073535;28;20006;-69
2023/12/25 09:00:48;;;;;;;;;;;17.80;99.90;;;;;;5070691;28;19920;-72
2023/12/25 09:03:13;;;;;;;;;;;17.80;99.90;;;;;;5074240;28;19908;-71
2023/12/25 09:05:40;;;;;;;;;;;17.80;99.90;;;;;;5073658;28;20296;-72
2023/12/25 09:08:06;;;;;;;;;;;17.80;99.90;;;;;;5055506;28;20411;-71
2023/12/25 09:10:34;;;;;;;;;;;17.90;99.90;;;;;;5061821;28;20015;-71
2023/12/25 09:13:00;;;;;;;;;;;18.10;99.90;;;;;;5072494;28;19912;-71
2023/12/25 09:15:26;;;;;;;;;;;18.10;99.90;;;;;;5069945;28;20401;-67
2023/12/25 09:17:52;;;;;;;;;;;18.20;99.90;;;;;;5066949;28;19927;-71
2023/12/25 09:20:18;;;;;;;;;;;18.30;99.90;;;;;;5090683;28;19920;-68
2023/12/25 09:22:44;;;;;;;;;;;18.40;99.90;;;;;;5106798;28;19938;-69
2023/12/25 09:25:10;;;;;;;;;;;18.40;99.90;;;;;;5101703;28;19927;-70
2023/12/25 09:27:36;;;;;;;;;;;18.30;99.90;;;;;;5102002;28;19999;-70
2023/12/25 09:30:08;;;;;;;;;;;18.40;99.90;;;;;;5099985;28;20033;-77
2023/12/25 09:32:37;;;;;;;;;;;18.50;99.90;;;;;;5075842;28;20292;-82
2023/12/25 09:35:03;;;;;;;;;;;18.60;99.90;;;;;;5077860;28;20427;-74
2023/12/25 09:37:29;;;;;;;;;;;18.50;99.90;;;;;;5097982;28;19912;-71
2023/12/25 09:39:55;;;;;;;;;;;18.40;99.90;;;;;;5092797;28;19911;-74
2023/12/25 09:42:21;;;;;;;;;;;18.50;99.90;;;;;;5092397;28;20383;-73
2023/12/25 09:44:49;;;;;;;;;;;18.60;99.90;;;;;;5092853;28;19912;-74
2023/12/25 09:47:14;;;;;;;;;;;18.60;99.90;;;;;;5092959;28;19958;-73
2023/12/25 09:49:40;;;;;;;;;;;18.60;99.90;;;;;;5092776;28;19963;-70
2023/12/25 09:52:08;;;;;;;;;;;18.70;99.90;;;;;;5092582;28;20023;-67
2023/12/25 09:54:34;;;;;;;;;;;18.80;99.90;;;;;;5092832;28;19939;-77
2023/12/25 09:57:02;;;;;;;;;;;18.70;99.90;;;;;;5075202;28;19912;-75
2023/12/25 09:59:29;;;;;;;;;;;18.40;99.90;;;;;;5075399;28;19912;-74
2023/12/25 10:02:11;;;;;;;;;;;18.20;99.90;;;;;;5073845;28;19908;-70
2023/12/25 10:04:37;;;;;;;;;;;18.10;99.90;;;;;;5054997;28;20368;-75
2023/12/25 10:07:04;;;;;;;;;;;18.10;99.90;;;;;;5089587;28;19920;-84
2023/12/25 10:09:30;;;;;;;;;;;18.10;99.90;;;;;;5074259;28;19926;-83
2023/12/25 10:11:56;;;;;;;;;;;17.70;99.90;;;;;;5093887;28;19912;-81
2023/12/25 10:14:23;;;;;;;;;;;17.30;99.90;;;;;;5093111;28;19928;-76
2023/12/25 10:16:49;;;;;;;;;;;17.50;99.90;;;;;;5093626;28;19915;-82
2023/12/25 10:19:15;;;;;;;;;;;17.50;99.90;;;;;;5074523;28;19913;-81
2023/12/25 10:21:42;;;;;;;;;;;17.50;99.90;;;;;;5074724;28;19932;-84
2023/12/25 10:24:15;;;;;;;;;;;17.70;99.90;;;;;;5072796;28;19989;-84
2023/12/25 10:26:43;;;;;;;;;;;17.90;99.90;;;;;;5076395;28;20350;-87
2023/12/25 10:29:09;;;;;;;;;;;18.30;99.90;;;;;;5074944;28;19920;-79
2023/12/25 10:31:38;;;;;;;;;;;18.50;99.90;;;;;;5092898;28;20016;-84
2023/12/25 10:34:05;;;;;;;;;;;18.70;99.90;;;;;;5073790;28;19912;-85
2023/12/25 10:36:31;;;;;;;;;;;18.80;99.90;;;;;;5074135;28;19989;-84
2023/12/25 10:38:57;;;;;;;;;;;18.80;99.90;;;;;;5075313;28;19999;-85
2023/12/25 10:41:33;;;;;;;;;;;18.90;99.90;;;;;;5093647;28;19908;-86
2023/12/25 10:44:03;;;;;;;;;;;18.80;99.90;;;;;;5068717;28;19913;-84
2023/12/25 10:46:30;;;;;;;;;;;18.70;99.90;;;;;;5073310;28;19909;-85
2023/12/25 10:48:56;;;;;;;;;;;18.50;99.90;;;;;;5054651;28;19912;-84
2023/12/25 10:51:26;;;;;;;;;;;18.60;99.90;;;;;;5072448;28;19965;-83
2023/12/25 10:53:53;;;;;;;;;;;18.80;99.90;;;;;;5054771;28;19912;-86
2023/12/25 10:56:20;;;;;;;;;;;18.90;99.90;;;;;;5073516;28;20220;-85
2023/12/25 10:58:48;;;;;;;;;;;18.70;99.90;;;;;;5055109;28;19986;-84
2023/12/25 11:01:15;;;;;;;;;;;18.20;99.90;;;;;;5073149;28;20003;-83
2023/12/25 11:03:41;;;;;;;;;;;18.20;99.90;;;;;;5065280;28;20355;-86
2023/12/25 11:06:08;;;;;;;;;;;18.40;99.90;;;;;;5075020;28;19914;-78
2023/12/25 11:08:34;;;;;;;;;;;18.30;99.90;;;;;;5074637;28;19958;-83
2023/12/25 11:10:59;;;;;;;;;;;18.20;99.90;;;;;;5074583;28;19951;-82
2023/12/25 11:13:25;;;;;;;;;;;18.30;99.90;;;;;;5090027;28;19916;-82
2023/12/25 11:15:51;;;;;;;;;;;18.40;99.90;;;;;;5074149;28;19912;-82
2023/12/25 11:18:18;;;;;;;;;;;18.50;99.90;;;;;;5074860;28;19943;-85
2023/12/25 11:21:06;;;;;;;;;;;18.50;99.90;;;;;;5092670;28;19920;-83
2023/12/25 11:23:33;;;;;;;;;;;18.80;99.90;;;;;;5074305;28;19923;-83
2023/12/25 11:25:59;;;;;;;;;;;19.10;99.90;;;;;;5092591;28;19980;-84
2023/12/25 11:28:25;;;;;;;;;;;19.30;99.90;;;;;;5093000;28;19912;-84
2023/12/25 11:30:51;;;;;;;;;;;19.40;99.90;;;;;;5073809;28;20339;-83
2023/12/25 11:33:20;;;;;;;;;;;19.60;99.90;;;;;;5090599;28;19912;-84
2023/12/25 11:35:46;;;;;;;;;;;19.80;99.90;;;;;;5091998;28;19908;-83
2023/12/25 11:38:21;;;;;;;;;;;19.90;99.90;;;;;;5092090;28;20283;-82
2023/12/25 11:40:49;;;;;;;;;;;20.00;99.90;;;;;;5073768;28;19912;-82
2023/12/25 11:43:17;;;;;;;;;;;20.00;99.90;;;;;;5090070;28;20290;-84
2023/12/25 11:45:43;;;;;;;;;;;19.70;99.90;;;;;;5091970;28;19912;-83
2023/12/25 11:48:11;;;;;;;;;;;19.70;99.90;;;;;;5091620;28;19908;-82
2023/12/25 11:50:38;;;;;;;;;;;19.80;99.90;;;;;;5091917;28;19922;-82
2023/12/25 11:53:03;;;;;;;;;;;19.70;99.90;;;;;;5090345;28;20249;-81
2023/12/25 11:55:30;;;;;;;;;;;19.80;99.90;;;;;;5071457;28;19924;-83
2023/12/25 11:57:56;;;;;;;;;;;19.90;99.90;;;;;;5053450;28;19908;-82
2023/12/25 12:00:31;;;;;;;;;;;20.00;99.90;;;;;;5070082;28;19958;-82
2023/12/25 12:02:57;;;;;;;;;;;19.80;99.90;;;;;;5073093;28;20014;-82
2023/12/25 12:05:23;;;;;;;;;;;19.90;99.90;;;;;;5054924;28;20399;-82
2023/12/25 12:07:48;;;;;;;;;;;20.00;99.90;;;;;;5075741;28;19938;-82
2023/12/25 12:10:14;;;;;;;;;;;20.20;99.90;;;;;;5075670;28;19997;-82
2023/12/25 12:12:41;;;;;;;;;;;20.30;99.90;;;;;;5076310;28;20045;-80
2023/12/25 12:15:08;;;;;;;;;;;20.40;99.90;;;;;;5079055;28;20355;-82
2023/12/25 12:17:35;;;;;;;;;;;20.00;99.90;;;;;;5075784;28;19924;-81
2023/12/25 12:20:02;;;;;;;;;;;19.70;99.90;;;;;;5095339;28;19916;-81
2023/12/25 12:22:28;;;;;;;;;;;19.50;99.90;;;;;;5093639;28;19923;-79
2023/12/25 12:25:10;;;;;;;;;;;19.60;99.90;;;;;;5096438;28;20495;-80
2023/12/25 12:27:36;;;;;;;;;;;19.30;99.90;;;;;;5095729;28;19947;-80
2023/12/25 12:30:02;;;;;;;;;;;19.00;99.90;;;;;;5095202;28;20356;-80
2023/12/25 12:32:28;;;;;;;;;;;19.00;99.90;;;;;;5095212;28;19920;-80
2023/12/25 12:34:53;;;;;;;;;;;19.20;99.90;;;;;;5074496;28;19916;-81
2023/12/25 12:37:20;;;;;;;;;;;19.50;99.90;;;;;;5095436;28;19947;-81
2023/12/25 12:39:46;;;;;;;;;;;19.60;99.90;;;;;;5076569;28;20008;-80
2023/12/25 12:42:12;;;;;;;;;;;19.50;99.90;;;;;;5095188;28;20287;-81
2023/12/25 12:44:38;;;;;;;;;;;19.70;99.90;;;;;;5082327;28;19943;-79
2023/12/25 12:47:05;;;;;;;;;;;19.80;99.90;;;;;;5074894;28;19908;-80
2023/12/25 12:49:32;;;;;;;;;;;19.80;99.90;;;;;;5075793;28;19968;-80
2023/12/25 12:51:59;;;;;;;;;;;19.60;99.90;;;;;;5076031;28;20000;-79
2023/12/25 12:54:25;;;;;;;;;;;19.50;99.90;;;;;;5074469;28;19912;-79
2023/12/25 12:56:51;;;;;;;;;;;19.50;99.90;;;;;;5056626;28;19913;-80
2023/12/25 12:59:17;;;;;;;;;;;19.70;99.90;;;;;;5074571;28;19920;-80
2023/12/25 13:01:43;;;;;;;;;;;19.70;99.90;;;;;;5074856;28;19908;-80
2023/12/25 13:04:09;;;;;;;;;;;19.40;99.90;;;;;;5080385;28;19908;-79
2023/12/25 13:06:35;;;;;;;;;;;19.60;99.90;;;;;;5094577;28;19908;-79
2023/12/25 13:09:03;;;;;;;;;;;19.80;99.90;;;;;;5095032;28;20022;-78
2023/12/25 13:11:30;;;;;;;;;;;19.80;99.90;;;;;;5094437;28;20396;-79
2023/12/25 13:13:57;;;;;;;;;;;20.00;99.90;;;;;;5089493;28;19912;-79
2023/12/25 13:16:23;;;;;;;;;;;20.10;99.90;;;;;;5073791;28;19912;-78
2023/12/25 13:18:49;;;;;;;;;;;20.20;99.90;;;;;;5074340;28;20288;-79
2023/12/25 13:21:15;;;;;;;;;;;20.30;99.90;;;;;;5073844;28;19920;-79
2023/12/25 13:23:42;;;;;;;;;;;20.20;99.90;;;;;;5075549;28;19916;-77
2023/12/25 13:26:11;;;;;;;;;;;20.20;99.90;;;;;;5073855;28;19976;-79
2023/12/25 13:28:37;;;;;;;;;;;20.20;99.90;;;;;;5073976;28;19908;-78
2023/12/25 13:31:03;;;;;;;;;;;20.20;99.90;;;;;;5055909;28;19999;-79
2023/12/25 13:33:29;;;;;;;;;;;19.90;99.90;;;;;;5073673;28;19960;-78
2023/12/25 13:35:54;;;;;;;;;;;19.50;99.90;;;;;;5091526;28;19994;-79
2023/12/25 13:38:20;;;;;;;;;;;19.20;99.90;;;;;;5094093;28;20309;-79
2023/12/25 13:40:46;;;;;;;;;;;19.20;99.90;;;;;;5075554;28;19908;-79
2023/12/25 13:43:12;;;;;;;;;;;19.20;99.90;;;;;;5075433;28;19915;-78
2023/12/25 13:45:38;;;;;;;;;;;19.30;99.90;;;;;;5090620;28;19923;-79
2023/12/25 13:48:04;;;;;;;;;;;19.20;99.90;;;;;;5093920;28;20335;-79
2023/12/25 13:50:30;;;;;;;;;;;19.00;99.90;;;;;;5093813;28;20451;-79
2023/12/25 13:52:56;;;;;;;;;;;18.70;99.90;;;;;;5093698;28;20027;-79
2023/12/25 13:55:22;;;;;;;;;;;18.60;99.90;;;;;;5062561;28;20399;-79
2023/12/25 13:57:48;;;;;;;;;;;18.70;99.90;;;;;;5073676;28;19920;-79
2023/12/25 14:00:14;;;;;;;;;;;18.60;99.90;;;;;;5073465;28;19915;-79
2023/12/25 14:02:40;;;;;;;;;;;18.70;99.90;;;;;;5055195;28;19908;-79
2023/12/25 14:05:06;;;;;;;;;;;18.80;99.90;;;;;;5084430;28;20221;-79
2023/12/25 14:07:32;;;;;;;;;;;18.70;99.90;;;;;;5075032;28;19977;-78
2023/12/25 14:09:59;;;;;;;;;;;18.70;99.90;;;;;;5093392;28;19916;-79
2023/12/25 14:12:24;;;;;;;;;;;18.60;99.90;;;;;;5075018;28;19977;-79